sensor_id;sensor_type;location;lat;lon;timestamp;pressure;altitude;pressure_sealevel;temperature;humidity
36386;BME280;24125;47.482;8.770;2023-02-15T00:00:36;97562.72;;;4.88;64.45
36386;BME280;24125;47.482;8.770;2023-02-15T00:03:09;97563.50;;;4.88;64.21
36386;BME280;24125;47.482;8.770;2023-02-15T00:05:42;97565.59;;;4.86;64.46
36386;BME280;24125;47.482;8.770;2023-02-15T00:08:15;97562.72;;;4.88;64.41
36386;BME280;24125;47.482;8.770;2023-02-15T00:10:49;97555.81;;;4.87;64.46
36386;BME280;24125;47.482;8.770;2023-02-15T00:13:22;97550.78;;;4.85;64.32
36386;BME280;24125;47.482;8.770;2023-02-15T00:16:00;97554.47;;;4.84;64.46
36386;BME280;24125;47.482;8.770;2023-02-15T00:18:33;97544.41;;;4.81;64.27
36386;BME280;24125;47.482;8.770;2023-02-15T00:21:08;97553.69;;;4.84;64.29
36386;BME280;24125;47.482;8.770;2023-02-15T00:23:42;97543.63;;;4.81;64.15
36386;BME280;24125;47.482;8.770;2023-02-15T00:26:16;97556.84;;;4.81;64.07
36386;BME280;24125;47.482;8.770;2023-02-15T00:28:49;97554.69;;;4.78;64.16
36386;BME280;24125;47.482;8.770;2023-02-15T00:31:22;97550.44;;;4.77;64.04
36386;BME280;24125;47.482;8.770;2023-02-15T00:33:56;97554.41;;;4.74;63.98
36386;BME280;24125;47.482;8.770;2023-02-15T00:36:33;97546.97;;;4.71;64.10
36386;BME280;24125;47.482;8.770;2023-02-15T00:39:06;97557.81;;;4.70;64.19
36386;BME280;24125;47.482;8.770;2023-02-15T00:41:41;97559.66;;;4.69;63.90
36386;BME280;24125;47.482;8.770;2023-02-15T00:44:14;97558.34;;;4.67;63.87
36386;BME280;24125;47.482;8.770;2023-02-15T00:46:47;97557.00;;;4.64;64.14
36386;BME280;24125;47.482;8.770;2023-02-15T00:49:20;97564.13;;;4.64;64.12
36386;BME280;24125;47.482;8.770;2023-02-15T00:51:53;97566.22;;;4.62;64.06
36386;BME280;24125;47.482;8.770;2023-02-15T00:54:26;97561.44;;;4.59;64.18
36386;BME280;24125;47.482;8.770;2023-02-15T00:57:00;97559.59;;;4.59;64.46
36386;BME280;24125;47.482;8.770;2023-02-15T00:59:33;97564.34;;;4.57;64.37
36386;BME280;24125;47.482;8.770;2023-02-15T01:02:06;97569.88;;;4.55;64.35
36386;BME280;24125;47.482;8.770;2023-02-15T01:04:39;97559.81;;;4.52;64.40
36386;BME280;24125;47.482;8.770;2023-02-15T01:07:12;97557.41;;;4.51;64.29
36386;BME280;24125;47.482;8.770;2023-02-15T01:09:45;97554.75;;;4.51;64.30
36386;BME280;24125;47.482;8.770;2023-02-15T01:12:20;97556.88;;;4.49;64.03
36386;BME280;24125;47.482;8.770;2023-02-15T01:14:53;97553.94;;;4.45;64.25
36386;BME280;24125;47.482;8.770;2023-02-15T01:17:26;97556.56;;;4.45;64.17
36386;BME280;24125;47.482;8.770;2023-02-15T01:19:59;97559.22;;;4.45;64.07
36386;BME280;24125;47.482;8.770;2023-02-15T01:22:32;97547.28;;;4.43;63.94
36386;BME280;24125;47.482;8.770;2023-02-15T01:25:05;97555.22;;;4.43;63.86
36386;BME280;24125;47.482;8.770;2023-02-15T01:27:39;97550.97;;;4.42;63.52
36386;BME280;24125;47.482;8.770;2023-02-15T01:30:14;97557.03;;;4.37;63.38
36386;BME280;24125;47.482;8.770;2023-02-15T01:32:47;97555.41;;;4.31;63.16
36386;BME280;24125;47.482;8.770;2023-02-15T01:35:20;97551.66;;;4.27;62.94
36386;BME280;24125;47.482;8.770;2023-02-15T01:37:53;97550.03;;;4.21;62.89
36386;BME280;24125;47.482;8.770;2023-02-15T01:40:26;97550.47;;;4.13;62.90
36386;BME280;24125;47.482;8.770;2023-02-15T01:43:01;97550.41;;;4.08;62.65
36386;BME280;24125;47.482;8.770;2023-02-15T01:45:34;97537.13;;;3.98;62.54
36386;BME280;24125;47.482;8.770;2023-02-15T01:48:18;97536.78;;;3.89;62.69
36386;BME280;24125;47.482;8.770;2023-02-15T01:50:54;97543.78;;;3.78;62.46
36386;BME280;24125;47.482;8.770;2023-02-15T01:53:33;97537.03;;;3.66;62.65
36386;BME280;24125;47.482;8.770;2023-02-15T01:56:10;97539.31;;;3.57;62.78
36386;BME280;24125;47.482;8.770;2023-02-15T01:58:47;97540.25;;;3.46;62.88
36386;BME280;24125;47.482;8.770;2023-02-15T02:01:22;97534.06;;;3.35;63.27
36386;BME280;24125;47.482;8.770;2023-02-15T02:04:00;97536.09;;;3.28;63.82
36386;BME280;24125;47.482;8.770;2023-02-15T02:06:36;97535.44;;;3.21;63.92
36386;BME280;24125;47.482;8.770;2023-02-15T02:09:10;97536.44;;;3.15;64.24
36386;BME280;24125;47.482;8.770;2023-02-15T02:11:46;97528.19;;;3.12;64.61
36386;BME280;24125;47.482;8.770;2023-02-15T02:14:22;97533.19;;;3.08;64.63
36386;BME280;24125;47.482;8.770;2023-02-15T02:16:58;97527.34;;;3.06;64.48
36386;BME280;24125;47.482;8.770;2023-02-15T02:19:58;97534.47;;;3.06;65.03
36386;BME280;24125;47.482;8.770;2023-02-15T02:26:38;97523.09;;;3.05;64.79
36386;BME280;24125;47.482;8.770;2023-02-15T02:35:24;97528.94;;;3.07;65.11
36386;BME280;24125;47.482;8.770;2023-02-15T02:38:05;97535.81;;;3.08;65.23
36386;BME280;24125;47.482;8.770;2023-02-15T02:40:48;97527.34;;;3.06;65.19
36386;BME280;24125;47.482;8.770;2023-02-15T02:43:29;97532.38;;;3.08;64.97
36386;BME280;24125;47.482;8.770;2023-02-15T02:46:11;97525.50;;;3.07;65.08
36386;BME280;24125;47.482;8.770;2023-02-15T02:48:48;97525.75;;;3.05;65.14
36386;BME280;24125;47.482;8.770;2023-02-15T02:51:23;97525.50;;;3.07;64.50
36386;BME280;24125;47.482;8.770;2023-02-15T02:53:59;97526.53;;;3.06;64.97
36386;BME280;24125;47.482;8.770;2023-02-15T02:56:36;97528.16;;;3.07;64.92
36386;BME280;24125;47.482;8.770;2023-02-15T02:59:16;97527.34;;;3.06;64.83
36386;BME280;24125;47.482;8.770;2023-02-15T03:01:54;97523.34;;;3.03;65.09
36386;BME280;24125;47.482;8.770;2023-02-15T03:04:30;97526.78;;;3.04;64.89
36386;BME280;24125;47.482;8.770;2023-02-15T03:07:08;97525.19;;;3.03;64.84
36386;BME280;24125;47.482;8.770;2023-02-15T03:09:46;97525.97;;;3.03;64.95
36386;BME280;24125;47.482;8.770;2023-02-15T03:12:23;97531.25;;;3.03;64.71
36386;BME280;24125;47.482;8.770;2023-02-15T03:15:02;97531.03;;;3.05;64.99
36386;BME280;24125;47.482;8.770;2023-02-15T03:17:39;97529.97;;;3.06;65.29
36386;BME280;24125;47.482;8.770;2023-02-15T03:20:15;97525.75;;;3.05;65.05
36386;BME280;24125;47.482;8.770;2023-02-15T03:22:54;97527.34;;;3.06;65.34
36386;BME280;24125;47.482;8.770;2023-02-15T03:25:32;97535.59;;;3.10;65.06
36386;BME280;24125;47.482;8.770;2023-02-15T03:28:08;97528.47;;;3.10;65.20
36386;BME280;24125;47.482;8.770;2023-02-15T03:30:44;97521.88;;;3.13;65.21
36386;BME280;24125;47.482;8.770;2023-02-15T03:33:19;97530.34;;;3.15;64.83
36386;BME280;24125;47.482;8.770;2023-02-15T03:35:59;97526.91;;;3.14;65.18
36386;BME280;24125;47.482;8.770;2023-02-15T03:38:43;97535.41;;;3.16;64.87
36386;BME280;24125;47.482;8.770;2023-02-15T03:41:19;97534.13;;;3.19;65.00
36386;BME280;24125;47.482;8.770;2023-02-15T03:43:55;97531.47;;;3.19;65.23
36386;BME280;24125;47.482;8.770;2023-02-15T03:46:33;97532.81;;;3.21;65.13
36386;BME280;24125;47.482;8.770;2023-02-15T03:49:13;97530.72;;;3.23;65.38
36386;BME280;24125;47.482;8.770;2023-02-15T03:51:50;97527.84;;;3.25;65.15
36386;BME280;24125;47.482;8.770;2023-02-15T03:54:28;97527.63;;;3.26;65.12
36386;BME280;24125;47.482;8.770;2023-02-15T03:57:20;97532.66;;;3.28;64.68
36386;BME280;24125;47.482;8.770;2023-02-15T04:00:14;97529.75;;;3.29;64.97
36386;BME280;24125;47.482;8.770;2023-02-15T04:03:22;97546.94;;;3.32;64.91
36386;BME280;24125;47.482;8.770;2023-02-15T04:05:57;97543.50;;;3.31;64.88
36386;BME280;24125;47.482;8.770;2023-02-15T04:08:30;97540.63;;;3.33;64.81
36386;BME280;24125;47.482;8.770;2023-02-15T04:11:18;97543.81;;;3.35;64.42
36386;BME280;24125;47.482;8.770;2023-02-15T04:13:51;97535.34;;;3.33;64.57
36386;BME280;24125;47.482;8.770;2023-02-15T04:16:28;97534.31;;;3.34;64.49
36386;BME280;24125;47.482;8.770;2023-02-15T04:19:01;97531.41;;;3.35;64.29
36386;BME280;24125;47.482;8.770;2023-02-15T04:21:52;97534.88;;;3.36;64.27
36386;BME280;24125;47.482;8.770;2023-02-15T04:24:43;97523.50;;;3.35;64.19
36386;BME280;24125;47.482;8.770;2023-02-15T04:27:36;97525.09;;;3.36;64.29
36386;BME280;24125;47.482;8.770;2023-02-15T04:30:11;97535.66;;;3.36;64.30
36386;BME280;24125;47.482;8.770;2023-02-15T04:32:45;97536.47;;;3.37;64.38
36386;BME280;24125;47.482;8.770;2023-02-15T04:35:20;97530.38;;;3.36;64.44
36386;BME280;24125;47.482;8.770;2023-02-15T04:37:53;97527.75;;;3.36;64.46
36386;BME280;24125;47.482;8.770;2023-02-15T04:40:30;97531.41;;;3.35;64.45
36386;BME280;24125;47.482;8.770;2023-02-15T04:43:06;97532.50;;;3.39;64.20
36386;BME280;24125;47.482;8.770;2023-02-15T04:45:39;97533.56;;;3.38;64.36
36386;BME280;24125;47.482;8.770;2023-02-15T04:48:12;97524.84;;;3.38;64.31
36386;BME280;24125;47.482;8.770;2023-02-15T04:50:45;97529.06;;;3.39;64.48
36386;BME280;24125;47.482;8.770;2023-02-15T04:53:17;97534.34;;;3.39;64.21
36386;BME280;24125;47.482;8.770;2023-02-15T04:55:50;97528.28;;;3.38;64.39
36386;BME280;24125;47.482;8.770;2023-02-15T04:58:25;97528.03;;;3.40;64.46
36386;BME280;24125;47.482;8.770;2023-02-15T05:00:58;97531.72;;;3.39;64.39
36386;BME280;24125;47.482;8.770;2023-02-15T05:03:32;97529.88;;;3.39;64.34
36386;BME280;24125;47.482;8.770;2023-02-15T05:06:05;97525.38;;;3.40;64.38
36386;BME280;24125;47.482;8.770;2023-02-15T05:08:38;97523.78;;;3.39;64.32
36386;BME280;24125;47.482;8.770;2023-02-15T05:11:11;97520.63;;;3.37;64.12
36386;BME280;24125;47.482;8.770;2023-02-15T05:13:45;97525.63;;;3.38;64.08
36386;BME280;24125;47.482;8.770;2023-02-15T05:16:21;97526.44;;;3.39;64.26
36386;BME280;24125;47.482;8.770;2023-02-15T05:18:55;97524.84;;;3.38;64.28
36386;BME280;24125;47.482;8.770;2023-02-15T05:21:28;97519.03;;;3.36;64.00
36386;BME280;24125;47.482;8.770;2023-02-15T05:24:01;97520.88;;;3.35;64.27
36386;BME280;24125;47.482;8.770;2023-02-15T05:26:54;97516.38;;;3.36;64.01
36386;BME280;24125;47.482;8.770;2023-02-15T05:29:45;97514.53;;;3.36;64.24
36386;BME280;24125;47.482;8.770;2023-02-15T05:32:18;97513.97;;;3.34;63.93
36386;BME280;24125;47.482;8.770;2023-02-15T05:34:51;97516.06;;;3.32;63.38
36386;BME280;24125;47.482;8.770;2023-02-15T05:37:27;97519.50;;;3.33;63.46
36386;BME280;24125;47.482;8.770;2023-02-15T05:40:00;97515.22;;;3.27;63.26
36386;BME280;24125;47.482;8.770;2023-02-15T05:42:33;97518.09;;;3.25;62.90
36386;BME280;24125;47.482;8.770;2023-02-15T05:45:08;97522.25;;;3.21;63.07
36386;BME280;24125;47.482;8.770;2023-02-15T05:47:41;97527.72;;;3.15;62.86
36386;BME280;24125;47.482;8.770;2023-02-15T05:50:14;97528.47;;;3.10;62.62
36386;BME280;24125;47.482;8.770;2023-02-15T05:52:47;97529.41;;;3.04;62.21
36386;BME280;24125;47.482;8.770;2023-02-15T05:55:22;97533.03;;;2.98;62.42
36386;BME280;24125;47.482;8.770;2023-02-15T05:57:56;97531.63;;;2.90;62.39
36386;BME280;24125;47.482;8.770;2023-02-15T06:00:31;97529.69;;;2.86;62.37
36386;BME280;24125;47.482;8.770;2023-02-15T06:03:07;97536.75;;;2.80;62.43
36386;BME280;24125;47.482;8.770;2023-02-15T06:05:40;97540.13;;;2.76;62.59
36386;BME280;24125;47.482;8.770;2023-02-15T06:08:13;97535.25;;;2.68;62.17
36386;BME280;24125;47.482;8.770;2023-02-15T06:10:46;97535.72;;;2.64;62.34
36386;BME280;24125;47.482;8.770;2023-02-15T06:13:19;97536.72;;;2.58;62.10
36386;BME280;24125;47.482;8.770;2023-02-15T06:15:56;97536.38;;;2.55;62.03
36386;BME280;24125;47.482;8.770;2023-02-15T06:18:32;97540.22;;;2.47;62.24
36386;BME280;24125;47.482;8.770;2023-02-15T06:21:05;97540.84;;;2.38;62.05
36386;BME280;24125;47.482;8.770;2023-02-15T06:23:38;97545.47;;;2.31;62.11
36386;BME280;24125;47.482;8.770;2023-02-15T06:26:11;97548.50;;;2.22;62.12
36386;BME280;24125;47.482;8.770;2023-02-15T06:28:44;97552.34;;;2.15;61.58
36386;BME280;24125;47.482;8.770;2023-02-15T06:31:19;97553.75;;;2.06;62.15
36386;BME280;24125;47.482;8.770;2023-02-15T06:33:52;97561.25;;;1.97;61.80
36386;BME280;24125;47.482;8.770;2023-02-15T06:36:32;97555.06;;;1.92;62.19
36386;BME280;24125;47.482;8.770;2023-02-15T06:39:05;97566.56;;;1.85;62.27
36386;BME280;24125;47.482;8.770;2023-02-15T06:41:38;97563.59;;;1.82;62.57
36386;BME280;24125;47.482;8.770;2023-02-15T06:44:11;97562.38;;;1.73;62.71
36386;BME280;24125;47.482;8.770;2023-02-15T06:46:45;97562.38;;;1.73;63.08
36386;BME280;24125;47.482;8.770;2023-02-15T06:49:22;97567.53;;;1.68;63.46
36386;BME280;24125;47.482;8.770;2023-02-15T06:51:54;97569.84;;;1.64;63.37
36386;BME280;24125;47.482;8.770;2023-02-15T06:54:28;97575.13;;;1.64;63.58
36386;BME280;24125;47.482;8.770;2023-02-15T06:57:01;97564.81;;;1.63;63.58
36386;BME280;24125;47.482;8.770;2023-02-15T06:59:34;97570.88;;;1.63;64.01
36386;BME280;24125;47.482;8.770;2023-02-15T07:02:10;97568.25;;;1.63;63.95
36386;BME280;24125;47.482;8.770;2023-02-15T07:04:43;97580.13;;;1.66;63.86
36386;BME280;24125;47.482;8.770;2023-02-15T07:07:19;97574.63;;;1.67;64.42
36386;BME280;24125;47.482;8.770;2023-02-15T07:09:52;97577.63;;;1.71;64.69
36386;BME280;24125;47.482;8.770;2023-02-15T07:12:25;97576.31;;;1.73;64.67
36386;BME280;24125;47.482;8.770;2023-02-15T07:15:15;97575.63;;;1.78;64.87
36386;BME280;24125;47.482;8.770;2023-02-15T07:17:50;97567.59;;;1.84;64.93
36386;BME280;24125;47.482;8.770;2023-02-15T07:20:23;97563.25;;;1.90;65.46
36386;BME280;24125;47.482;8.770;2023-02-15T07:22:56;97559.41;;;1.98;65.90
36386;BME280;24125;47.482;8.770;2023-02-15T07:25:29;97562.69;;;2.05;65.91
36386;BME280;24125;47.482;8.770;2023-02-15T07:28:03;97568.69;;;2.17;66.03
36386;BME280;24125;47.482;8.770;2023-02-15T07:30:37;97561.75;;;2.27;65.31
36386;BME280;24125;47.482;8.770;2023-02-15T07:33:13;97556.66;;;2.38;65.32
36386;BME280;24125;47.482;8.770;2023-02-15T07:35:57;97560.28;;;2.48;65.22
36386;BME280;24125;47.482;8.770;2023-02-15T07:38:32;97562.50;;;2.56;64.80
36386;BME280;24125;47.482;8.770;2023-02-15T07:41:07;97555.69;;;2.60;64.50
36386;BME280;24125;47.482;8.770;2023-02-15T07:43:41;97556.34;;;2.68;64.56
36386;BME280;24125;47.482;8.770;2023-02-15T07:46:16;97558.81;;;2.74;64.26
36386;BME280;24125;47.482;8.770;2023-02-15T07:48:50;97556.47;;;2.78;64.19
36386;BME280;24125;47.482;8.770;2023-02-15T07:51:23;97561.06;;;2.82;64.41
36386;BME280;24125;47.482;8.770;2023-02-15T07:53:56;97555.03;;;2.87;64.28
36386;BME280;24125;47.482;8.770;2023-02-15T07:56:30;97558.31;;;2.94;64.37
36386;BME280;24125;47.482;8.770;2023-02-15T07:59:06;97554.47;;;3.01;64.17
36386;BME280;24125;47.482;8.770;2023-02-15T08:01:40;97561.97;;;3.10;64.17
36386;BME280;24125;47.482;8.770;2023-02-15T08:04:14;97560.75;;;3.17;64.08
36386;BME280;24125;47.482;8.770;2023-02-15T08:06:47;97558.16;;;3.22;63.97
36386;BME280;24125;47.482;8.770;2023-02-15T08:09:24;97549.03;;;3.30;64.22
36386;BME280;24125;47.482;8.770;2023-02-15T08:11:57;97548.59;;;3.38;64.03
36386;BME280;24125;47.482;8.770;2023-02-15T08:14:30;97548.16;;;3.46;63.93
36386;BME280;24125;47.482;8.770;2023-02-15T08:17:03;97552.72;;;3.51;63.53
36386;BME280;24125;47.482;8.770;2023-02-15T08:19:38;97548.28;;;3.56;63.43
36386;BME280;24125;47.482;8.770;2023-02-15T08:22:12;97552.84;;;3.61;63.20
36386;BME280;24125;47.482;8.770;2023-02-15T08:24:46;97550.75;;;3.63;62.87
36386;BME280;24125;47.482;8.770;2023-02-15T08:27:19;97547.03;;;3.64;62.91
36386;BME280;24125;47.482;8.770;2023-02-15T08:29:58;97543.91;;;3.67;62.89
36386;BME280;24125;47.482;8.770;2023-02-15T08:32:31;97542.88;;;3.68;62.76
36386;BME280;24125;47.482;8.770;2023-02-15T08:35:06;97537.13;;;3.71;62.84
36386;BME280;24125;47.482;8.770;2023-02-15T08:37:39;97534.72;;;3.69;62.67
36386;BME280;24125;47.482;8.770;2023-02-15T08:40:12;97537.13;;;3.71;63.03
36386;BME280;24125;47.482;8.770;2023-02-15T08:42:46;97540.59;;;3.76;63.36
36386;BME280;24125;47.482;8.770;2023-02-15T08:45:19;97529.53;;;3.79;63.42
36386;BME280;24125;47.482;8.770;2023-02-15T08:47:52;97535.09;;;3.83;63.50
36386;BME280;24125;47.482;8.770;2023-02-15T08:50:27;97525.66;;;3.87;63.35
36386;BME280;24125;47.482;8.770;2023-02-15T08:53:00;97521.44;;;3.91;63.18
36386;BME280;24125;47.482;8.770;2023-02-15T08:55:33;97529.97;;;3.98;63.42
36386;BME280;24125;47.482;8.770;2023-02-15T08:58:06;97530.03;;;4.03;63.28
36386;BME280;24125;47.482;8.770;2023-02-15T09:00:39;97529.59;;;4.11;63.29
36386;BME280;24125;47.482;8.770;2023-02-15T09:03:12;97533.31;;;4.15;63.17
36386;BME280;24125;47.482;8.770;2023-02-15T09:05:46;97534.41;;;4.20;63.38
36386;BME280;24125;47.482;8.770;2023-02-15T09:08:19;97533.63;;;4.24;63.02
36386;BME280;24125;47.482;8.770;2023-02-15T09:10:52;97530.25;;;4.29;62.80
36386;BME280;24125;47.482;8.770;2023-02-15T09:13:25;97526.31;;;4.31;63.00
36386;BME280;24125;47.482;8.770;2023-02-15T09:16:00;97525.00;;;4.34;62.80
36386;BME280;24125;47.482;8.770;2023-02-15T09:18:34;97530.34;;;4.39;62.91
36386;BME280;24125;47.482;8.770;2023-02-15T09:21:11;97525.63;;;4.41;62.83
36386;BME280;24125;47.482;8.770;2023-02-15T09:23:47;97523.50;;;4.43;63.24
36386;BME280;24125;47.482;8.770;2023-02-15T09:26:22;97526.44;;;4.46;63.11
36386;BME280;24125;47.482;8.770;2023-02-15T09:28:57;97522.50;;;4.49;63.16
36386;BME280;24125;47.482;8.770;2023-02-15T09:31:31;97523.56;;;4.53;63.10
36386;BME280;24125;47.482;8.770;2023-02-15T09:34:05;97524.13;;;4.55;63.27
36386;BME280;24125;47.482;8.770;2023-02-15T09:36:40;97509.31;;;4.59;63.42
36386;BME280;24125;47.482;8.770;2023-02-15T09:39:15;97506.19;;;4.62;63.21
36386;BME280;24125;47.482;8.770;2023-02-15T09:42:20;97503.03;;;4.65;63.09
36386;BME280;24125;47.482;8.770;2023-02-15T09:45:09;97507.56;;;4.70;63.23
36386;BME280;24125;47.482;8.770;2023-02-15T09:47:58;97518.69;;;4.72;63.10
36386;BME280;24125;47.482;8.770;2023-02-15T09:50:43;97506.00;;;4.74;63.05
36386;BME280;24125;47.482;8.770;2023-02-15T09:53:42;97508.41;;;4.75;63.13
36386;BME280;24125;47.482;8.770;2023-02-15T09:56:25;97507.31;;;4.76;63.29
36386;BME280;24125;47.482;8.770;2023-02-15T09:59:04;97509.22;;;4.81;63.45
36386;BME280;24125;47.482;8.770;2023-02-15T10:01:48;97511.88;;;4.81;63.66
36386;BME280;24125;47.482;8.770;2023-02-15T10:04:38;97510.03;;;4.86;63.47
36386;BME280;24125;47.482;8.770;2023-02-15T10:07:25;97512.19;;;4.89;63.60
36386;BME280;24125;47.482;8.770;2023-02-15T10:10:10;97502.94;;;4.92;63.76
36386;BME280;24125;47.482;8.770;2023-02-15T10:12:59;97498.97;;;4.94;63.79
36386;BME280;24125;47.482;8.770;2023-02-15T10:15:45;97501.66;;;5.00;63.60
36386;BME280;24125;47.482;8.770;2023-02-15T10:18:48;97499.03;;;5.05;63.77
36386;BME280;24125;47.482;8.770;2023-02-15T10:21:33;97496.91;;;5.07;63.72
36386;BME280;24125;47.482;8.770;2023-02-15T10:24:22;97500.13;;;5.09;63.83
36386;BME280;24125;47.482;8.770;2023-02-15T10:27:07;97489.00;;;5.12;63.87
36386;BME280;24125;47.482;8.770;2023-02-15T10:29:49;97489.53;;;5.14;63.89
36386;BME280;24125;47.482;8.770;2023-02-15T10:32:29;97490.88;;;5.16;64.08
36386;BME280;24125;47.482;8.770;2023-02-15T10:35:10;97488.78;;;5.18;64.13
36386;BME280;24125;47.482;8.770;2023-02-15T10:37:59;97476.84;;;5.21;64.09
36386;BME280;24125;47.482;8.770;2023-02-15T10:40:43;97485.88;;;5.25;63.76
36386;BME280;24125;47.482;8.770;2023-02-15T10:43:51;97473.19;;;5.27;64.11
36386;BME280;24125;47.482;8.770;2023-02-15T10:46:48;97466.81;;;5.28;64.07
36386;BME280;24125;47.482;8.770;2023-02-15T10:49:38;97463.91;;;5.29;64.12
36386;BME280;24125;47.482;8.770;2023-02-15T10:52:25;97461.81;;;5.31;64.38
36386;BME280;24125;47.482;8.770;2023-02-15T10:55:08;97459.69;;;5.34;64.09
36386;BME280;24125;47.482;8.770;2023-02-15T10:57:59;97454.16;;;5.35;64.20
36386;BME280;24125;47.482;8.770;2023-02-15T11:00:41;97452.56;;;5.39;64.44
36386;BME280;24125;47.482;8.770;2023-02-15T11:03:27;97446.75;;;5.42;64.21
36386;BME280;24125;47.482;8.770;2023-02-15T11:06:05;97440.16;;;5.45;64.65
36386;BME280;24125;47.482;8.770;2023-02-15T11:08:44;97431.41;;;5.49;64.56
36386;BME280;24125;47.482;8.770;2023-02-15T11:11:22;97436.97;;;5.53;64.95
36386;BME280;24125;47.482;8.770;2023-02-15T11:13:58;97432.47;;;5.58;64.95
36386;BME280;24125;47.482;8.770;2023-02-15T11:16:38;97420.03;;;5.64;65.19
36386;BME280;24125;47.482;8.770;2023-02-15T11:19:18;97415.00;;;5.67;65.06
36386;BME280;24125;47.482;8.770;2023-02-15T11:21:55;97411.31;;;5.74;65.27
36386;BME280;24125;47.482;8.770;2023-02-15T11:24:40;97410.25;;;5.80;65.58
36386;BME280;24125;47.482;8.770;2023-02-15T11:27:19;97407.13;;;5.88;65.31
36386;BME280;24125;47.482;8.770;2023-02-15T11:29:57;97393.84;;;5.93;65.29
36386;BME280;24125;47.482;8.770;2023-02-15T11:32:35;97404.19;;;5.99;65.85
36386;BME280;24125;47.482;8.770;2023-02-15T11:35:19;97404.44;;;6.08;65.91
36386;BME280;24125;47.482;8.770;2023-02-15T11:37:57;97400.22;;;6.12;65.55
36386;BME280;24125;47.482;8.770;2023-02-15T11:40:34;97392.78;;;6.19;65.41
36386;BME280;24125;47.482;8.770;2023-02-15T11:43:14;97388.25;;;6.25;65.52
36386;BME280;24125;47.482;8.770;2023-02-15T11:45:49;97384.03;;;6.29;65.18
36386;BME280;24125;47.482;8.770;2023-02-15T11:48:24;97382.13;;;6.34;64.96
36386;BME280;24125;47.482;8.770;2023-02-15T11:50:57;97388.50;;;6.38;65.10
36386;BME280;24125;47.482;8.770;2023-02-15T11:53:33;97388.50;;;6.43;65.48
36386;BME280;24125;47.482;8.770;2023-02-15T11:56:13;97379.75;;;6.48;65.32
36386;BME280;24125;47.482;8.770;2023-02-15T11:58:50;97376.78;;;6.50;65.08
36386;BME280;24125;47.482;8.770;2023-02-15T12:01:30;97374.16;;;6.55;65.53
36386;BME280;24125;47.482;8.770;2023-02-15T12:04:09;97376.25;;;6.58;65.67
36386;BME280;24125;47.482;8.770;2023-02-15T12:06:51;97370.94;;;6.63;65.67
36386;BME280;24125;47.482;8.770;2023-02-15T12:09:35;97373.56;;;6.68;65.72
36386;BME280;24125;47.482;8.770;2023-02-15T12:12:23;97369.31;;;6.72;65.82
36386;BME280;24125;47.482;8.770;2023-02-15T12:14:58;97362.69;;;6.74;65.88
36386;BME280;24125;47.482;8.770;2023-02-15T12:17:32;97353.09;;;6.78;65.97
36386;BME280;24125;47.482;8.770;2023-02-15T12:20:24;97351.19;;;6.84;65.79
36386;BME280;24125;47.482;8.770;2023-02-15T12:23:03;97344.56;;;6.87;65.97
36386;BME280;24125;47.482;8.770;2023-02-15T12:25:40;97346.69;;;6.90;65.08
36386;BME280;24125;47.482;8.770;2023-02-15T12:28:23;97339.75;;;6.94;65.37
36386;BME280;24125;47.482;8.770;2023-02-15T12:30:58;97333.38;;;6.95;65.26
36386;BME280;24125;47.482;8.770;2023-02-15T12:33:35;97333.34;;;7.00;65.66
36386;BME280;24125;47.482;8.770;2023-02-15T12:36:13;97327.47;;;7.03;65.53
36386;BME280;24125;47.482;8.770;2023-02-15T12:39:14;97331.97;;;7.07;65.41
36386;BME280;24125;47.482;8.770;2023-02-15T12:42:03;97330.09;;;7.13;65.49
36386;BME280;24125;47.482;8.770;2023-02-15T12:44:36;97329.03;;;7.14;65.39
36386;BME280;24125;47.482;8.770;2023-02-15T12:47:18;97329.50;;;7.21;65.77
36386;BME280;24125;47.482;8.770;2023-02-15T12:50:21;97326.56;;;7.23;65.01
36386;BME280;24125;47.482;8.770;2023-02-15T12:53:06;97326.25;;;7.29;65.62
36386;BME280;24125;47.482;8.770;2023-02-15T12:55:49;97313.22;;;7.33;65.27
36386;BME280;24125;47.482;8.770;2023-02-15T12:58:24;97321.44;;;7.36;65.17
36386;BME280;24125;47.482;8.770;2023-02-15T13:01:10;97311.56;;;7.42;65.46
36386;BME280;24125;47.482;8.770;2023-02-15T13:03:59;97311.81;;;7.45;65.58
36386;BME280;24125;47.482;8.770;2023-02-15T13:06:35;97304.34;;;7.47;65.88
36386;BME280;24125;47.482;8.770;2023-02-15T13:09:15;97302.75;;;7.51;65.59
36386;BME280;24125;47.482;8.770;2023-02-15T13:11:50;97298.72;;;7.54;65.30
36386;BME280;24125;47.482;8.770;2023-02-15T13:14:28;97293.38;;;7.59;65.81
36386;BME280;24125;47.482;8.770;2023-02-15T13:17:03;97289.06;;;7.63;65.31
36386;BME280;24125;47.482;8.770;2023-02-15T13:19:42;97287.19;;;7.69;65.47
36386;BME280;24125;47.482;8.770;2023-02-15T13:22:19;97272.53;;;7.71;65.26
36386;BME280;24125;47.482;8.770;2023-02-15T13:24:57;97275.94;;;7.77;65.96
36386;BME280;24125;47.482;8.770;2023-02-15T13:27:35;97278.53;;;7.82;65.37
36386;BME280;24125;47.482;8.770;2023-02-15T13:30:23;97276.63;;;7.87;65.17
36386;BME280;24125;47.482;8.770;2023-02-15T13:33:01;97262.78;;;7.90;65.47
36386;BME280;24125;47.482;8.770;2023-02-15T13:35:39;97274.16;;;7.96;65.34
36386;BME280;24125;47.482;8.770;2023-02-15T13:38:34;97264.00;;;8.03;65.78
36386;BME280;24125;47.482;8.770;2023-02-15T13:41:16;97262.34;;;8.07;65.62
36386;BME280;24125;47.482;8.770;2023-02-15T13:43:58;97266.81;;;8.12;65.03
36386;BME280;24125;47.482;8.770;2023-02-15T13:46:45;97262.75;;;8.19;65.47
36386;BME280;24125;47.482;8.770;2023-02-15T13:49:32;97260.81;;;8.25;65.16
36386;BME280;24125;47.482;8.770;2023-02-15T13:52:18;97253.31;;;8.32;65.79
36386;BME280;24125;47.482;8.770;2023-02-15T13:58:13;97262.47;;;8.45;65.36
36386;BME280;24125;47.482;8.770;2023-02-15T14:00:56;97261.34;;;8.51;64.87
36386;BME280;24125;47.482;8.770;2023-02-15T14:04:01;97257.84;;;8.55;64.70
36386;BME280;24125;47.482;8.770;2023-02-15T14:06:49;97258.03;;;8.59;64.69
36386;BME280;24125;47.482;8.770;2023-02-15T14:09:40;97254.53;;;8.63;65.04
36386;BME280;24125;47.482;8.770;2023-02-15T14:12:29;97261.66;;;8.68;64.63
36386;BME280;24125;47.482;8.770;2023-02-15T14:15:27;97255.75;;;8.71;64.86
36386;BME280;24125;47.482;8.770;2023-02-15T14:18:12;97260.22;;;8.76;65.22
36386;BME280;24125;47.482;8.770;2023-02-15T14:20:56;97258.84;;;8.78;64.87